Time;durP1;ratioP1;P1;durP2;ratioP2;P2;SDS_P1;SDS_P2;PMS_P1;PMS_P2;Temp;Humidity;BMP_temperature;BMP_pressure;BME280_temperature;BME280_humidity;BME280_pressure;Samples;Min_cycle;Max_cycle;Signal;HPM_P1;HPM_P2
2022/11/13 05:01:35;;;;;;;4.82;4.63;;;4.30;99.90;;;;;;6070557;23;20658;-65
2022/11/13 05:04:02;;;;;;;5.50;5.15;;;4.30;99.90;;;;;;6092262;23;20169;-67
2022/11/13 05:06:28;;;;;;;15.80;5.25;;;4.30;99.90;;;;;;6095547;23;20189;-67
2022/11/13 05:08:55;;;;;;;2.85;2.65;;;4.30;99.90;;;;;;6096897;23;20182;-66
2022/11/13 05:11:22;;;;;;;4.97;4.68;;;4.30;99.90;;;;;;6096670;23;20523;-67
2022/11/13 05:13:49;;;;;;;8.05;5.55;;;4.30;99.90;;;;;;6093536;23;20268;-67
2022/11/13 05:16:16;;;;;;;8.35;4.93;;;4.30;99.90;;;;;;6095772;23;20215;-67
2022/11/13 05:18:44;;;;;;;5.32;3.42;;;4.30;99.90;;;;;;6095193;23;20189;-68
2022/11/13 05:21:11;;;;;;;7.10;4.15;;;4.30;99.90;;;;;;6095215;23;20268;-67
2022/11/13 05:23:37;;;;;;;4.05;3.85;;;4.30;99.90;;;;;;6094124;23;20492;-67
2022/11/13 05:26:05;;;;;;;4.55;4.13;;;4.20;99.90;;;;;;6096216;23;20624;-67
2022/11/13 05:28:33;;;;;;;4.07;2.63;;;4.20;99.90;;;;;;6095108;23;20185;-66
2022/11/13 05:31:04;;;;;;;5.57;5.10;;;4.20;99.90;;;;;;6095559;23;20196;-67
2022/11/13 05:33:31;;;;;;;8.85;6.18;;;4.20;99.90;;;;;;6092316;23;20185;-68
2022/11/13 05:36:03;;;;;;;10.50;5.22;;;4.20;99.90;;;;;;6092890;23;20185;-66
2022/11/13 05:38:30;;;;;;;8.05;5.32;;;4.20;99.90;;;;;;6094105;23;20224;-66
2022/11/13 05:41:02;;;;;;;4.25;3.13;;;4.20;99.90;;;;;;6095852;23;20215;-67
2022/11/13 05:43:29;;;;;;;6.00;5.40;;;4.20;99.90;;;;;;6093950;23;20197;-67
2022/11/13 05:46:00;;;;;;;10.13;4.78;;;4.20;99.90;;;;;;6095176;23;20180;-67
2022/11/13 05:48:27;;;;;;;4.75;4.38;;;4.20;99.90;;;;;;6093789;23;20165;-67
2022/11/13 05:50:54;;;;;;;5.20;4.70;;;4.20;99.90;;;;;;6094185;23;20201;-67
2022/11/13 05:53:22;;;;;;;5.18;4.53;;;4.10;99.90;;;;;;6094805;23;20651;-68
2022/11/13 05:55:49;;;;;;;6.68;6.13;;;4.10;99.90;;;;;;6095791;23;20201;-67
2022/11/13 05:58:16;;;;;;;13.57;6.78;;;4.10;99.90;;;;;;6096050;23;20185;-68
2022/11/13 06:00:42;;;;;;;3.13;3.03;;;4.10;99.90;;;;;;6095939;23;20211;-67
2022/11/13 06:03:09;;;;;;;10.98;4.18;;;4.10;99.90;;;;;;6093278;23;20499;-67
2022/11/13 06:05:36;;;;;;;7.43;5.10;;;4.10;99.90;;;;;;6093614;23;20184;-67
2022/11/13 06:08:02;;;;;;;4.88;4.43;;;4.10;99.90;;;;;;6094525;23;20489;-67
2022/11/13 06:10:30;;;;;;;5.95;5.22;;;4.00;99.90;;;;;;6095926;23;20184;-68
2022/11/13 06:12:57;;;;;;;5.53;5.03;;;4.10;99.90;;;;;;6094825;23;20196;-67
2022/11/13 06:15:24;;;;;;;5.70;3.88;;;4.00;99.90;;;;;;6095755;23;20511;-67
2022/11/13 06:17:50;;;;;;;7.60;5.78;;;4.00;99.90;;;;;;6094933;23;20188;-67
2022/11/13 06:20:17;;;;;;;3.53;3.40;;;4.00;99.90;;;;;;6095645;23;20201;-67
2022/11/13 06:22:44;;;;;;;7.07;3.75;;;4.00;99.90;;;;;;6095422;23;20186;-67
2022/11/13 06:25:11;;;;;;;9.45;8.27;;;3.90;99.90;;;;;;6096015;23;20195;-68
2022/11/13 06:27:38;;;;;;;14.00;5.15;;;3.90;99.90;;;;;;6095333;23;20196;-68
2022/11/13 06:30:07;;;;;;;4.80;3.45;;;3.90;99.90;;;;;;6096449;23;20528;-67
2022/11/13 06:32:33;;;;;;;4.60;4.40;;;3.90;99.90;;;;;;6095648;23;20200;-67
2022/11/13 06:35:00;;;;;;;4.28;3.50;;;3.90;99.90;;;;;;6096241;23;20184;-68
2022/11/13 06:37:27;;;;;;;6.43;5.75;;;3.90;99.90;;;;;;6105101;23;20232;-66
2022/11/13 06:39:53;;;;;;;6.75;5.70;;;3.90;99.90;;;;;;6116223;23;20173;-68
2022/11/13 06:42:20;;;;;;;6.07;5.68;;;3.80;99.90;;;;;;6095597;23;20284;-68
2022/11/13 06:44:48;;;;;;;5.43;5.10;;;3.80;99.90;;;;;;6094613;23;20181;-68
2022/11/13 06:47:15;;;;;;;7.45;4.95;;;3.80;99.90;;;;;;6095917;23;20195;-68
2022/11/13 06:49:41;;;;;;;7.28;4.35;;;3.80;99.90;;;;;;6094734;23;20785;-68
2022/11/13 06:52:08;;;;;;;5.95;5.03;;;3.80;99.90;;;;;;6096258;23;20200;-69
2022/11/13 06:54:35;;;;;;;5.20;3.85;;;3.80;99.90;;;;;;6096584;23;20666;-68
2022/11/13 06:57:01;;;;;;;6.75;5.55;;;3.80;99.90;;;;;;6095925;23;20180;-67
2022/11/13 06:59:28;;;;;;;4.85;4.65;;;3.70;99.90;;;;;;6096236;23;20192;-67
2022/11/13 07:01:56;;;;;;;5.97;5.07;;;3.70;99.90;;;;;;6093881;23;20209;-68
2022/11/13 07:04:23;;;;;;;4.20;3.03;;;3.70;99.90;;;;;;6093990;23;20182;-66
2022/11/13 07:06:49;;;;;;;3.35;3.05;;;3.70;99.90;;;;;;6091503;23;20192;-68
2022/11/13 07:09:16;;;;;;;4.75;4.35;;;3.70;99.90;;;;;;6091159;23;20186;-66
2022/11/13 07:11:43;;;;;;;12.52;4.80;;;3.70;99.90;;;;;;6094187;23;20586;-67
2022/11/13 07:14:11;;;;;;;3.63;3.33;;;3.70;99.90;;;;;;6093059;23;20203;-67
2022/11/13 07:16:38;;;;;;;5.35;4.88;;;3.70;99.90;;;;;;6094884;23;20521;-67
2022/11/13 07:19:06;;;;;;;4.72;3.33;;;3.70;99.90;;;;;;6094881;23;20207;-67
2022/11/13 07:21:33;;;;;;;6.40;5.80;;;3.80;99.90;;;;;;6095488;23;20212;-68
2022/11/13 07:23:59;;;;;;;5.25;4.90;;;3.90;99.90;;;;;;6091419;23;20513;-68
2022/11/13 07:26:26;;;;;;;4.68;4.38;;;3.90;99.90;;;;;;6094050;23;20200;-68
2022/11/13 07:28:53;;;;;;;3.90;3.55;;;4.00;99.90;;;;;;6093358;23;20188;-68
2022/11/13 07:31:20;;;;;;;10.50;4.50;;;4.10;99.90;;;;;;6093415;23;20200;-69
2022/11/13 07:33:50;;;;;;;6.47;5.97;;;4.20;99.90;;;;;;6092523;23;20185;-68
2022/11/13 07:36:18;;;;;;;7.03;6.07;;;4.30;99.90;;;;;;6093716;23;20197;-68
2022/11/13 07:38:44;;;;;;;14.80;6.25;;;4.40;99.90;;;;;;6093643;23;20472;-67
2022/11/13 07:41:11;;;;;;;10.98;9.70;;;4.50;99.90;;;;;;6094625;23;20304;-68
2022/11/13 07:43:38;;;;;;;12.13;5.32;;;4.60;99.90;;;;;;6093757;23;20185;-68
2022/11/13 07:46:05;;;;;;;9.10;5.88;;;4.80;99.90;;;;;;6094126;23;20193;-68
2022/11/13 07:48:31;;;;;;;12.10;6.22;;;5.00;99.90;;;;;;6095148;23;20196;-68
2022/11/13 07:51:00;;;;;;;4.70;4.15;;;5.30;99.90;;;;;;6092996;23;20197;-68
2022/11/13 07:53:28;;;;;;;3.88;3.67;;;5.40;99.90;;;;;;6091721;23;20189;-68
2022/11/13 07:55:55;;;;;;;9.57;6.78;;;5.60;99.90;;;;;;6092707;23;20677;-69
2022/11/13 07:58:21;;;;;;;9.07;7.63;;;5.70;99.90;;;;;;6094083;23;20211;-67
2022/11/13 08:00:48;;;;;;;14.57;5.30;;;5.90;99.90;;;;;;6091461;23;20206;-68
2022/11/13 08:03:16;;;;;;;11.05;6.53;;;6.00;99.90;;;;;;6092721;23;20209;-69
2022/11/13 08:05:43;;;;;;;11.07;5.95;;;6.10;99.90;;;;;;6093107;23;20391;-67
2022/11/13 08:08:12;;;;;;;8.90;6.43;;;6.20;99.90;;;;;;6092250;23;20669;-68
2022/11/13 08:10:40;;;;;;;14.57;11.35;;;6.30;99.90;;;;;;6093926;23;20298;-67
2022/11/13 08:13:09;;;;;;;5.20;4.65;;;6.40;99.90;;;;;;6091295;23;20500;-67
2022/11/13 08:15:36;;;;;;;10.07;5.45;;;6.50;99.90;;;;;;6092208;23;20185;-67
2022/11/13 08:18:04;;;;;;;27.42;6.82;;;6.60;99.90;;;;;;6092057;23;20182;-67
2022/11/13 08:20:31;;;;;;;12.18;7.57;;;6.70;99.90;;;;;;6091581;23;20204;-68
2022/11/13 08:22:59;;;;;;;4.50;4.20;;;6.70;99.90;;;;;;6090192;23;20187;-66
2022/11/13 08:25:26;;;;;;;6.65;6.03;;;6.80;99.90;;;;;;6092212;23;20527;-67
2022/11/13 08:27:55;;;;;;;10.88;7.07;;;6.90;99.90;;;;;;6092344;23;20519;-67
2022/11/13 08:30:23;;;;;;;11.65;5.50;;;6.90;99.90;;;;;;6092164;23;20205;-68
2022/11/13 08:32:50;;;;;;;8.27;5.70;;;7.00;99.90;;;;;;6091054;23;20264;-66
2022/11/13 08:35:17;;;;;;;8.18;7.47;;;7.10;99.90;;;;;;6091768;23;20568;-67
2022/11/13 08:37:43;;;;;;;10.73;7.28;;;7.20;99.90;;;;;;6091447;23;20205;-67
2022/11/13 08:40:11;;;;;;;10.57;7.43;;;7.20;99.90;;;;;;6091983;23;20669;-67
2022/11/13 08:42:38;;;;;;;28.98;9.38;;;7.20;99.90;;;;;;6090500;23;20525;-66
2022/11/13 08:45:07;;;;;;;8.30;4.63;;;7.30;99.90;;;;;;6092595;23;20653;-67
2022/11/13 08:47:34;;;;;;;7.93;6.13;;;7.30;99.90;;;;;;6091585;23;20462;-67
2022/11/13 08:50:00;;;;;;;8.23;6.32;;;7.30;99.90;;;;;;6092099;23;20190;-67
2022/11/13 08:52:27;;;;;;;9.85;5.53;;;7.40;99.90;;;;;;6092285;23;20565;-67
2022/11/13 08:54:54;;;;;;;10.40;5.40;;;7.40;99.90;;;;;;6091244;23;20188;-67
2022/11/13 08:57:21;;;;;;;6.90;5.78;;;7.40;99.90;;;;;;6091103;23;20277;-67
2022/11/13 08:59:48;;;;;;;12.38;8.25;;;7.50;99.90;;;;;;6091786;23;20182;-66
2022/11/13 09:02:24;;;;;;;9.25;6.93;;;7.50;99.90;;;;;;6091424;23;20210;-67
2022/11/13 09:04:50;;;;;;;12.05;5.45;;;7.50;99.90;;;;;;6089821;23;20254;-67
2022/11/13 09:07:17;;;;;;;10.40;7.38;;;7.60;99.90;;;;;;6090619;23;20183;-67
2022/11/13 09:09:44;;;;;;;6.65;5.68;;;7.60;99.90;;;;;;6091651;23;20183;-66
2022/11/13 09:12:10;;;;;;;8.20;5.28;;;7.60;99.90;;;;;;6093655;23;20207;-66
2022/11/13 09:14:37;;;;;;;7.13;5.68;;;7.60;99.90;;;;;;6091997;23;20278;-67
2022/11/13 09:17:04;;;;;;;18.63;6.20;;;7.60;99.90;;;;;;6090725;23;20195;-68
2022/11/13 09:19:32;;;;;;;9.55;6.90;;;7.60;99.90;;;;;;6091107;23;20193;-69
2022/11/13 09:21:59;;;;;;;7.72;6.53;;;7.60;99.90;;;;;;6093617;23;20236;-67
2022/11/13 09:24:26;;;;;;;14.00;7.75;;;7.70;99.90;;;;;;6093081;23;20199;-68
2022/11/13 09:26:53;;;;;;;10.85;7.35;;;7.70;99.90;;;;;;6093097;23;20526;-67
2022/11/13 09:29:19;;;;;;;5.50;4.70;;;7.70;99.90;;;;;;6092364;23;20190;-67
2022/11/13 09:31:46;;;;;;;7.35;6.00;;;7.60;99.90;;;;;;6092881;23;20287;-68
2022/11/13 09:34:13;;;;;;;7.00;5.90;;;7.60;99.90;;;;;;6092936;23;20178;-68
2022/11/13 09:36:41;;;;;;;8.70;6.75;;;7.60;99.90;;;;;;6093921;23;20183;-67
2022/11/13 09:39:08;;;;;;;5.35;4.95;;;7.50;99.90;;;;;;6093530;23;20194;-68
2022/11/13 09:41:39;;;;;;;8.50;6.65;;;7.50;99.90;;;;;;6095185;23;20237;-68
2022/11/13 09:44:13;;;;;;;6.72;5.13;;;7.50;99.90;;;;;;6093256;23;20188;-68
2022/11/13 09:46:43;;;;;;;5.28;4.95;;;7.50;99.90;;;;;;6093294;23;20178;-68
2022/11/13 09:49:16;;;;;;;8.15;4.18;;;7.50;99.90;;;;;;6092946;23;20182;-70
2022/11/13 09:51:51;;;;;;;11.73;6.50;;;7.50;99.90;;;;;;6093956;23;20483;-67
2022/11/13 09:54:18;;;;;;;6.57;5.97;;;7.50;99.90;;;;;;6092523;23;20621;-68
2022/11/13 09:56:51;;;;;;;9.25;6.28;;;7.50;99.90;;;;;;6093912;23;20187;-68
2022/11/13 09:59:25;;;;;;;10.48;8.80;;;7.50;99.90;;;;;;6093361;23;20170;-68
2022/11/13 10:01:59;;;;;;;8.85;5.43;;;7.60;99.90;;;;;;6094645;23;20661;-68
2022/11/13 10:04:37;;;;;;;6.75;4.85;;;7.60;99.90;;;;;;6093183;23;20169;-69
2022/11/13 10:07:19;;;;;;;9.75;7.85;;;7.60;99.90;;;;;;6094412;23;20244;-67
2022/11/13 10:10:05;;;;;;;8.75;7.18;;;7.70;99.90;;;;;;6092402;23;20258;-67
2022/11/13 10:12:33;;;;;;;6.43;5.30;;;7.70;99.90;;;;;;6093090;23;20300;-67
2022/11/13 10:15:02;;;;;;;7.68;5.88;;;7.70;99.90;;;;;;6093253;23;20564;-67
2022/11/13 10:17:34;;;;;;;11.23;8.10;;;7.70;99.90;;;;;;6092985;23;20492;-68
2022/11/13 10:20:04;;;;;;;8.98;5.43;;;7.70;99.90;;;;;;6092767;23;20190;-68
2022/11/13 10:22:37;;;;;;;5.10;4.68;;;7.70;99.90;;;;;;6091657;23;20210;-68
2022/11/13 10:25:11;;;;;;;8.98;7.65;;;7.70;99.90;;;;;;6092238;23;20170;-68
2022/11/13 10:27:39;;;;;;;15.65;8.13;;;7.70;99.90;;;;;;6092846;23;20472;-68
2022/11/13 10:30:12;;;;;;;4.70;3.47;;;7.70;99.90;;;;;;6091511;23;20192;-68
2022/11/13 10:32:39;;;;;;;18.27;8.18;;;7.70;99.90;;;;;;6092477;23;20219;-68
2022/11/13 10:35:22;;;;;;;7.03;5.10;;;7.70;99.90;;;;;;6091410;23;20648;-68
2022/11/13 10:38:01;;;;;;;5.32;4.28;;;7.80;99.90;;;;;;6093441;23;20171;-68
2022/11/13 10:40:29;;;;;;;21.55;11.18;;;7.80;99.90;;;;;;6091227;23;20167;-68
2022/11/13 10:43:05;;;;;;;7.85;6.13;;;7.80;99.90;;;;;;6092348;23;20456;-68
2022/11/13 10:45:32;;;;;;;14.50;6.82;;;7.80;99.90;;;;;;6092107;23;20576;-68
2022/11/13 10:47:59;;;;;;;13.70;7.32;;;7.90;99.90;;;;;;6092727;23;20197;-68
2022/11/13 10:50:28;;;;;;;9.63;7.25;;;7.90;99.90;;;;;;6092168;23;20521;-68
2022/11/13 10:52:57;;;;;;;10.23;6.93;;;8.00;99.90;;;;;;6091080;23;20179;-68
2022/11/13 10:55:35;;;;;;;9.30;5.15;;;8.00;99.90;;;;;;6092164;23;20187;-69
2022/11/13 10:58:04;;;;;;;6.07;5.25;;;8.00;99.90;;;;;;6093569;23;20179;-68
2022/11/13 11:00:32;;;;;;;10.02;7.38;;;8.00;99.90;;;;;;6093240;23;20206;-69
2022/11/13 11:02:59;;;;;;;4.43;4.03;;;8.00;99.90;;;;;;6091493;23;20488;-68
2022/11/13 11:05:28;;;;;;;5.80;2.75;;;8.00;99.90;;;;;;6092434;23;20190;-69
2022/11/13 11:07:58;;;;;;;8.35;6.15;;;8.00;99.90;;;;;;6092325;23;20189;-69
2022/11/13 11:10:32;;;;;;;7.00;3.92;;;8.00;99.90;;;;;;6092539;23;20182;-69
2022/11/13 11:13:03;;;;;;;5.88;3.17;;;8.00;99.90;;;;;;6091380;23;20171;-69
2022/11/13 11:15:38;;;;;;;10.65;7.05;;;8.00;99.90;;;;;;6090898;23;20566;-69
2022/11/13 11:18:13;;;;;;;8.68;6.53;;;8.10;99.90;;;;;;6092737;23;20191;-69
2022/11/13 11:20:44;;;;;;;4.05;3.85;;;8.10;99.90;;;;;;6091646;23;20233;-68
2022/11/13 11:23:25;;;;;;;8.65;4.32;;;8.10;99.90;;;;;;6092306;23;20201;-68
2022/11/13 11:25:57;;;;;;;3.08;2.20;;;8.10;99.90;;;;;;6092617;23;20170;-68
2022/11/13 11:28:31;;;;;;;5.57;3.60;;;8.10;99.90;;;;;;6093440;23;20190;-67
2022/11/13 11:31:12;;;;;;;7.65;5.13;;;8.10;99.90;;;;;;6091180;23;20982;-67
2022/11/13 11:33:49;;;;;;;9.00;5.43;;;8.10;99.90;;;;;;6092207;23;20174;-68
2022/11/13 11:36:25;;;;;;;9.13;6.07;;;8.20;99.90;;;;;;6090972;23;20793;-67
2022/11/13 11:38:59;;;;;;;6.97;5.15;;;8.20;99.90;;;;;;6092060;23;20242;-67
2022/11/13 11:41:33;;;;;;;10.15;7.50;;;8.30;99.90;;;;;;6090995;23;20229;-67
2022/11/13 11:44:11;;;;;;;11.35;7.05;;;8.30;99.90;;;;;;6091660;23;20516;-68
2022/11/13 11:46:38;;;;;;;10.00;7.20;;;8.40;99.90;;;;;;6091793;23;20476;-68
2022/11/13 11:49:05;;;;;;;5.35;3.83;;;8.50;99.90;;;;;;6091987;23;20182;-68
2022/11/13 11:51:35;;;;;;;8.23;6.45;;;8.50;99.90;;;;;;6090684;23;20290;-68
2022/11/13 11:54:24;;;;;;;11.90;7.82;;;8.50;99.90;;;;;;6090539;23;20171;-67
2022/11/13 11:56:52;;;;;;;12.63;7.13;;;8.60;99.90;;;;;;6092621;23;20173;-67
2022/11/13 11:59:40;;;;;;;15.00;8.40;;;8.60;99.90;;;;;;6091968;23;20187;-68
2022/11/13 12:02:41;;;;;;;8.23;7.03;;;8.70;99.90;;;;;;6091553;23;20218;-68
2022/11/13 12:05:20;;;;;;;4.50;4.13;;;8.70;99.90;;;;;;6091100;23;20235;-69
2022/11/13 12:07:57;;;;;;;9.90;6.88;;;8.80;99.90;;;;;;6093777;23;20222;-68
2022/11/13 12:10:32;;;;;;;8.85;5.00;;;8.80;99.90;;;;;;6092510;23;20586;-68
2022/11/13 12:13:13;;;;;;;4.32;1.75;;;8.90;99.90;;;;;;6091554;23;20517;-68
2022/11/13 12:15:49;;;;;;;8.50;5.30;;;8.90;99.90;;;;;;6091951;23;20165;-68
2022/11/13 12:18:22;;;;;;;8.18;6.18;;;9.00;99.90;;;;;;6091340;23;20174;-68
2022/11/13 12:20:56;;;;;;;8.07;4.80;;;9.00;99.90;;;;;;6091806;23;20268;-68
2022/11/13 12:23:37;;;;;;;9.77;4.90;;;9.00;99.90;;;;;;6089370;23;20191;-68
2022/11/13 12:26:14;;;;;;;12.00;6.53;;;9.10;99.90;;;;;;6092336;23;20167;-68
2022/11/13 12:28:46;;;;;;;3.55;3.35;;;9.10;99.90;;;;;;6091264;23;20170;-68
2022/11/13 12:31:28;;;;;;;4.75;4.03;;;9.10;99.90;;;;;;6090826;23;20214;-68
2022/11/13 12:34:02;;;;;;;2.88;2.60;;;9.10;99.90;;;;;;6091874;23;20163;-69
2022/11/13 12:36:30;;;;;;;7.43;5.53;;;9.10;99.90;;;;;;6092681;23;20178;-67
2022/11/13 12:39:05;;;;;;;12.82;5.43;;;9.10;99.90;;;;;;6092095;23;20280;-68
2022/11/13 12:41:39;;;;;;;9.45;6.78;;;9.10;99.90;;;;;;6092264;23;20203;-68
2022/11/13 12:44:24;;;;;;;9.35;6.75;;;9.20;99.90;;;;;;6092435;23;20187;-68
2022/11/13 12:46:51;;;;;;;7.82;4.80;;;9.20;99.90;;;;;;6094586;23;20685;-68
2022/11/13 12:49:33;;;;;;;4.80;4.50;;;9.20;99.90;;;;;;6093904;23;20187;-69
2022/11/13 12:52:01;;;;;;;5.28;4.70;;;9.20;99.90;;;;;;6094495;23;20203;-69
2022/11/13 12:54:30;;;;;;;9.30;5.72;;;9.20;99.90;;;;;;6094398;23;20245;-68
2022/11/13 12:57:19;;;;;;;9.77;5.13;;;9.30;99.90;;;;;;6094867;23;20252;-69
2022/11/13 12:59:48;;;;;;;9.80;6.93;;;9.20;99.90;;;;;;6094798;23;20224;-69
2022/11/13 13:02:34;;;;;;;11.55;6.32;;;9.20;99.90;;;;;;6094200;23;20211;-69
2022/11/13 13:05:14;;;;;;;11.52;7.22;;;9.20;99.90;;;;;;6095384;23;20225;-67
2022/11/13 13:08:04;;;;;;;6.95;6.07;;;9.20;99.90;;;;;;6094575;23;20175;-67
2022/11/13 13:10:40;;;;;;;8.75;7.90;;;9.20;99.90;;;;;;6093798;23;20176;-68
2022/11/13 13:13:17;;;;;;;12.82;6.65;;;9.10;99.90;;;;;;6093970;23;20174;-67
2022/11/13 13:15:46;;;;;;;10.40;7.47;;;9.10;99.90;;;;;;6093977;23;20178;-68
2022/11/13 13:18:26;;;;;;;9.98;5.85;;;9.10;99.90;;;;;;6094235;23;20210;-68
2022/11/13 13:21:05;;;;;;;10.45;7.88;;;9.10;99.90;;;;;;6093846;23;20208;-68
2022/11/13 13:23:34;;;;;;;9.88;7.60;;;9.10;99.90;;;;;;6093395;23;20192;-68
2022/11/13 13:26:13;;;;;;;16.10;7.70;;;9.10;99.90;;;;;;6093477;23;20206;-68
2022/11/13 13:28:43;;;;;;;11.15;7.38;;;9.10;99.90;;;;;;6093736;23;20175;-68
2022/11/13 13:31:22;;;;;;;9.77;7.07;;;9.10;99.90;;;;;;6093840;23;20704;-68
2022/11/13 13:33:58;;;;;;;14.35;6.47;;;9.10;99.90;;;;;;6093983;23;20171;-69
2022/11/13 13:36:36;;;;;;;3.75;3.55;;;9.10;99.90;;;;;;6093683;23;20168;-68
2022/11/13 13:39:16;;;;;;;6.95;6.03;;;9.10;99.90;;;;;;6093187;23;20171;-69
2022/11/13 13:41:55;;;;;;;4.47;3.58;;;9.10;99.90;;;;;;6093830;23;20226;-69
2022/11/13 13:44:49;;;;;;;9.27;7.57;;;9.10;99.90;;;;;;6092818;23;20689;-69
2022/11/13 13:47:23;;;;;;;6.65;6.00;;;9.10;99.90;;;;;;6092323;23;20180;-69
2022/11/13 13:49:51;;;;;;;9.95;8.75;;;9.10;99.90;;;;;;6093559;23;20271;-69
2022/11/13 13:52:23;;;;;;;9.10;4.97;;;9.10;99.90;;;;;;6096144;23;20215;-68
2022/11/13 13:54:50;;;;;;;11.05;6.05;;;9.10;99.90;;;;;;6092544;23;20173;-69
2022/11/13 13:57:17;;;;;;;13.20;7.35;;;9.10;99.90;;;;;;6093658;23;20576;-69
2022/11/13 13:59:45;;;;;;;8.57;4.70;;;9.10;99.90;;;;;;6093273;23;20187;-69
2022/11/13 14:02:16;;;;;;;12.02;8.82;;;9.10;99.90;;;;;;6092897;23;20667;-69
2022/11/13 14:04:45;;;;;;;14.18;8.57;;;9.10;99.90;;;;;;6092528;23;20254;-69
2022/11/13 14:07:24;;;;;;;9.15;3.70;;;9.10;99.90;;;;;;6103183;23;20603;-69
2022/11/13 14:10:05;;;;;;;10.35;6.50;;;9.20;99.90;;;;;;6093053;23;20186;-69
2022/11/13 14:12:32;;;;;;;12.18;6.47;;;9.20;99.90;;;;;;6093328;23;20207;-69
2022/11/13 14:15:03;;;;;;;7.43;4.35;;;9.20;99.90;;;;;;6092680;23;20183;-69
2022/11/13 14:17:31;;;;;;;9.98;5.97;;;9.20;99.90;;;;;;6093391;23;20187;-69
2022/11/13 14:19:59;;;;;;;11.35;8.30;;;9.20;99.90;;;;;;6093894;23;20187;-69
2022/11/13 14:22:26;;;;;;;17.35;6.25;;;9.20;99.90;;;;;;6095159;23;20281;-68
2022/11/13 14:24:56;;;;;;;7.63;6.13;;;9.20;99.90;;;;;;6093909;23;20184;-68
2022/11/13 14:27:26;;;;;;;7.18;5.35;;;9.20;99.90;;;;;;6092948;23;20610;-68
2022/11/13 14:29:56;;;;;;;11.90;7.00;;;9.20;99.90;;;;;;6091626;23;20188;-67
2022/11/13 14:32:27;;;;;;;8.90;4.45;;;9.10;99.90;;;;;;6091817;23;20201;-67
2022/11/13 14:34:57;;;;;;;9.27;7.72;;;9.10;99.90;;;;;;6091911;23;20171;-67
2022/11/13 14:37:28;;;;;;;5.88;3.28;;;9.10;99.90;;;;;;6092948;23;20184;-67
2022/11/13 14:39:57;;;;;;;9.43;7.47;;;9.10;99.90;;;;;;6092335;23;20215;-69
2022/11/13 14:42:28;;;;;;;13.95;5.90;;;9.10;99.90;;;;;;6092371;23;20211;-68
2022/11/13 14:45:12;;;;;;;8.07;5.72;;;9.10;99.90;;;;;;6091522;23;20174;-67
2022/11/13 14:47:41;;;;;;;4.85;3.28;;;9.10;99.90;;;;;;6092742;23;20178;-67
2022/11/13 14:50:24;;;;;;;6.78;6.25;;;9.10;99.90;;;;;;6092370;23;20184;-67
2022/11/13 14:53:02;;;;;;;11.63;6.10;;;9.10;99.90;;;;;;6090080;23;20661;-67
2022/11/13 14:55:30;;;;;;;7.22;5.15;;;9.10;99.90;;;;;;6091586;23;20583;-67
2022/11/13 14:57:57;;;;;;;11.20;7.03;;;9.10;99.90;;;;;;6092783;23;20267;-68
2022/11/13 15:00:30;;;;;;;12.93;7.10;;;9.10;99.90;;;;;;6091892;23;20528;-68
2022/11/13 15:02:59;;;;;;;9.38;4.97;;;9.10;99.90;;;;;;6091313;23;20219;-69
2022/11/13 15:05:26;;;;;;;14.32;6.45;;;9.10;99.90;;;;;;6092067;23;20186;-68
2022/11/13 15:07:54;;;;;;;13.00;7.35;;;9.10;99.90;;;;;;6092406;23;20183;-67
2022/11/13 15:10:23;;;;;;;9.60;4.93;;;9.10;99.90;;;;;;6091951;23;20499;-67
2022/11/13 15:12:50;;;;;;;11.25;7.00;;;9.10;99.90;;;;;;6090528;23;20677;-68
2022/11/13 15:15:18;;;;;;;10.55;7.03;;;9.10;99.90;;;;;;6090660;23;20210;-68
2022/11/13 15:17:47;;;;;;;5.93;4.40;;;9.10;99.90;;;;;;6092291;23;20242;-68
2022/11/13 15:20:18;;;;;;;7.13;5.88;;;9.10;99.90;;;;;;6091625;23;20278;-68
2022/11/13 15:22:45;;;;;;;7.72;5.03;;;9.10;99.90;;;;;;6091405;23;20191;-68
2022/11/13 15:25:14;;;;;;;7.63;6.05;;;9.10;99.90;;;;;;6092395;23;20188;-68
2022/11/13 15:27:41;;;;;;;6.90;6.03;;;9.10;99.90;;;;;;6091792;23;20651;-68
2022/11/13 15:30:08;;;;;;;5.32;4.88;;;9.20;99.90;;;;;;6092796;23;20191;-68
2022/11/13 15:32:35;;;;;;;10.45;4.85;;;9.10;99.90;;;;;;6090900;23;20266;-69
2022/11/13 15:35:02;;;;;;;8.40;4.10;;;9.20;99.90;;;;;;6090223;23;20193;-68
2022/11/13 15:37:30;;;;;;;6.68;4.78;;;9.20;99.90;;;;;;6092229;23;20181;-68
2022/11/13 15:39:56;;;;;;;7.13;5.70;;;9.20;99.90;;;;;;6091386;23;20709;-67
2022/11/13 15:42:27;;;;;;;6.25;3.78;;;9.20;99.90;;;;;;6092724;23;20207;-68
2022/11/13 15:44:54;;;;;;;8.65;4.97;;;9.20;99.90;;;;;;6090470;23;20214;-68
2022/11/13 15:47:27;;;;;;;8.35;6.38;;;9.20;99.90;;;;;;6092456;23;20286;-68
2022/11/13 15:49:53;;;;;;;6.53;4.20;;;9.20;99.90;;;;;;6091424;23;20176;-68
2022/11/13 15:52:21;;;;;;;8.55;4.82;;;9.20;99.90;;;;;;6091999;23;20207;-68
2022/11/13 15:54:49;;;;;;;5.25;4.32;;;9.30;99.90;;;;;;6088501;23;20194;-68
2022/11/13 15:57:21;;;;;;;6.50;5.80;;;9.30;99.90;;;;;;6090130;23;20188;-68
2022/11/13 15:59:48;;;;;;;6.65;6.00;;;9.30;99.90;;;;;;6091909;23;20172;-68
2022/11/13 16:02:15;;;;;;;8.00;4.63;;;9.30;99.90;;;;;;6091009;23;20212;-67
2022/11/13 16:04:42;;;;;;;7.50;4.85;;;9.30;99.90;;;;;;6091090;23;20207;-67
2022/11/13 16:07:14;;;;;;;5.55;4.35;;;9.30;99.90;;;;;;6091800;23;20671;-67
2022/11/13 16:09:41;;;;;;;1.95;1.88;;;9.30;99.90;;;;;;6091818;23;20172;-67
2022/11/13 16:12:11;;;;;;;6.63;3.83;;;9.40;99.90;;;;;;6091041;23;20207;-68
2022/11/13 16:14:37;;;;;;;6.15;3.10;;;9.40;99.90;;;;;;6091420;23;20183;-66
2022/11/13 16:17:10;;;;;;;3.05;2.35;;;9.40;99.90;;;;;;6092888;23;20202;-68
2022/11/13 16:19:38;;;;;;;4.57;4.15;;;9.40;99.90;;;;;;6090035;23;20280;-67
2022/11/13 16:22:15;;;;;;;2.85;2.20;;;9.40;99.90;;;;;;6091564;23;20544;-67
2022/11/13 16:24:43;;;;;;;4.50;3.17;;;9.40;99.90;;;;;;6089006;23;20191;-67
2022/11/13 16:27:15;;;;;;;5.45;2.17;;;9.40;99.90;;;;;;6091721;23;20191;-67
2022/11/13 16:29:42;;;;;;;6.28;4.25;;;9.40;99.90;;;;;;6091443;23;20167;-68
2022/11/13 16:32:14;;;;;;;1.17;1.17;;;9.40;99.90;;;;;;6093101;23;20303;-68
2022/11/13 16:34:40;;;;;;;3.85;2.38;;;9.40;99.90;;;;;;6091621;23;20180;-67
2022/11/13 16:37:14;;;;;;;3.17;2.28;;;9.50;99.90;;;;;;6093365;23;20187;-67
2022/11/13 16:39:40;;;;;;;2.60;2.38;;;9.50;99.90;;;;;;6091692;23;20167;-68
2022/11/13 16:42:07;;;;;;;7.13;3.00;;;9.50;99.90;;;;;;6093411;23;20204;-67
2022/11/13 16:44:35;;;;;;;3.22;3.00;;;9.50;99.90;;;;;;6092115;23;20207;-67
2022/11/13 16:47:02;;;;;;;2.45;2.25;;;9.50;99.90;;;;;;6093170;23;20200;-67
2022/11/13 16:49:29;;;;;;;6.10;3.53;;;9.50;99.90;;;;;;6091839;23;20194;-68
2022/11/13 16:51:55;;;;;;;4.78;3.08;;;9.50;99.90;;;;;;6092120;23;20720;-69
2022/11/13 16:54:22;;;;;;;6.55;2.75;;;9.50;99.90;;;;;;6091540;23;20179;-68
2022/11/13 16:56:49;;;;;;;1.67;1.58;;;9.50;99.90;;;;;;6092485;23;20214;-69
2022/11/13 16:59:16;;;;;;;3.08;2.78;;;9.50;99.90;;;;;;6092010;23;20194;-68
2022/11/13 17:01:44;;;;;;;2.78;2.47;;;9.50;99.90;;;;;;6092211;23;20285;-69
2022/11/13 17:04:13;;;;;;;5.22;3.20;;;9.50;99.90;;;;;;6092216;23;20207;-70
2022/11/13 17:06:39;;;;;;;3.63;3.20;;;9.60;99.90;;;;;;6090945;23;20187;-70
2022/11/13 17:09:06;;;;;;;2.72;2.08;;;9.60;99.90;;;;;;6088615;23;20195;-69
2022/11/13 17:11:33;;;;;;;3.40;3.25;;;9.60;99.90;;;;;;6089561;23;20929;-69
2022/11/13 17:14:01;;;;;;;3.50;3.20;;;9.60;99.90;;;;;;6089779;23;20227;-69
2022/11/13 17:16:29;;;;;;;3.70;2.63;;;9.70;99.90;;;;;;6089248;23;20513;-69
2022/11/13 17:18:58;;;;;;;3.78;3.03;;;9.70;99.90;;;;;;6091675;23;20168;-69
2022/11/13 17:21:27;;;;;;;6.15;3.00;;;9.70;99.90;;;;;;6094280;23;20204;-69
2022/11/13 17:23:55;;;;;;;4.55;3.22;;;9.70;99.90;;;;;;6097909;23;20210;-68
2022/11/13 17:26:22;;;;;;;2.17;2.03;;;9.70;99.90;;;;;;6101167;23;20179;-69
2022/11/13 17:28:49;;;;;;;3.00;2.80;;;9.70;99.90;;;;;;6101582;23;20265;-69
2022/11/13 17:31:15;;;;;;;3.38;1.95;;;9.80;99.90;;;;;;6101985;23;20204;-69
2022/11/13 17:33:42;;;;;;;3.03;2.85;;;9.80;99.90;;;;;;6108211;23;20255;-69
2022/11/13 17:36:10;;;;;;;3.05;1.63;;;9.70;99.90;;;;;;6091203;23;20984;-70
2022/11/13 17:38:37;;;;;;;1.77;1.25;;;9.70;99.90;;;;;;6097895;23;20191;-69
2022/11/13 17:41:06;;;;;;;2.85;2.65;;;9.80;99.90;;;;;;6100769;23;20203;-69
2022/11/13 17:43:35;;;;;;;2.15;2.00;;;9.80;99.90;;;;;;6099130;23;20657;-69
2022/11/13 17:46:02;;;;;;;3.78;2.45;;;9.80;99.90;;;;;;6103026;23;20426;-69
2022/11/13 17:48:32;;;;;;;2.97;2.78;;;9.80;99.90;;;;;;6094141;23;20191;-69
2022/11/13 17:51:00;;;;;;;2.25;2.15;;;9.70;99.90;;;;;;6092949;23;20275;-68
2022/11/13 17:53:28;;;;;;;2.80;2.45;;;9.80;99.90;;;;;;6100583;23;20187;-69
2022/11/13 17:55:55;;;;;;;3.22;2.60;;;9.80;99.90;;;;;;6093466;23;20184;-69
2022/11/13 17:58:22;;;;;;;4.25;2.30;;;9.80;99.90;;;;;;6093772;23;20184;-69
2022/11/13 18:00:49;;;;;;;5.10;3.55;;;9.80;99.90;;;;;;6093291;23;20212;-70
2022/11/13 18:03:16;;;;;;;3.80;3.47;;;9.80;99.90;;;;;;6092241;23;20171;-69
2022/11/13 18:05:43;;;;;;;4.90;3.90;;;9.80;99.90;;;;;;6095294;23;20191;-69
2022/11/13 18:08:11;;;;;;;1.88;1.77;;;9.80;99.90;;;;;;6094883;23;20235;-70
2022/11/13 18:10:39;;;;;;;2.80;2.60;;;9.80;99.90;;;;;;6094262;23;20193;-70